sensor_id;sensor_type;location;lat;lon;timestamp;pressure;altitude;pressure_sealevel;temperature;humidity
42289;BME280;30230;47.520;19.016;2022-10-15T00:01:44;99298.94;;;11.76;96.33
42289;BME280;30230;47.520;19.016;2022-10-15T00:03:44;99293.72;;;11.67;96.46
42289;BME280;30230;47.520;19.016;2022-10-15T00:05:45;99290.19;;;11.67;97.21
42289;BME280;30230;47.520;19.016;2022-10-15T00:07:45;99293.53;;;11.69;96.79
42289;BME280;30230;47.520;19.016;2022-10-15T00:09:45;99286.25;;;11.69;96.48
42289;BME280;30230;47.520;19.016;2022-10-15T00:11:46;99290.00;;;11.68;96.84
42289;BME280;30230;47.520;19.016;2022-10-15T00:13:47;99293.34;;;11.64;97.35
42289;BME280;30230;47.520;19.016;2022-10-15T00:15:48;99284.78;;;11.60;97.12
42289;BME280;30230;47.520;19.016;2022-10-15T00:17:48;99287.50;;;11.60;98.17
42289;BME280;30230;47.520;19.016;2022-10-15T00:19:49;99283.97;;;11.60;97.50
42289;BME280;30230;47.520;19.016;2022-10-15T00:21:49;99293.31;;;11.70;98.53
42289;BME280;30230;47.520;19.016;2022-10-15T00:23:50;99286.22;;;11.76;97.13
42289;BME280;30230;47.520;19.016;2022-10-15T00:26:03;99287.50;;;11.73;97.18
42289;BME280;30230;47.520;19.016;2022-10-15T00:28:04;99287.06;;;11.70;97.76
42289;BME280;30230;47.520;19.016;2022-10-15T00:30:05;99292.06;;;11.80;97.55
42289;BME280;30230;47.520;19.016;2022-10-15T00:32:05;99285.41;;;11.76;98.02
42289;BME280;30230;47.520;19.016;2022-10-15T00:34:06;99290.38;;;11.72;98.43
42289;BME280;30230;47.520;19.016;2022-10-15T00:36:12;99287.28;;;11.68;98.08
42289;BME280;30230;47.520;19.016;2022-10-15T00:38:13;99279.81;;;11.64;98.22
42289;BME280;30230;47.520;19.016;2022-10-15T00:40:13;99273.97;;;11.60;97.82
42289;BME280;30230;47.520;19.016;2022-10-15T00:42:14;99285.84;;;11.59;98.42
42289;BME280;30230;47.520;19.016;2022-10-15T00:48:24;99270.88;;;11.50;98.81
42289;BME280;30230;47.520;19.016;2022-10-15T00:50:26;99264.81;;;11.55;98.21
42289;BME280;30230;47.520;19.016;2022-10-15T00:54:42;99260.69;;;11.39;99.39
42289;BME280;30230;47.520;19.016;2022-10-15T00:56:44;99261.31;;;11.34;99.41
42289;BME280;30230;47.520;19.016;2022-10-15T00:58:45;99259.63;;;11.40;99.42
42289;BME280;30230;47.520;19.016;2022-10-15T01:00:47;99255.47;;;11.31;99.67
42289;BME280;30230;47.520;19.016;2022-10-15T01:02:47;99254.66;;;11.24;100.00
42289;BME280;30230;47.520;19.016;2022-10-15T01:04:48;99257.56;;;11.22;100.00
42289;BME280;30230;47.520;19.016;2022-10-15T01:06:48;99250.69;;;11.19;100.00
42289;BME280;30230;47.520;19.016;2022-10-15T01:08:50;99256.31;;;11.18;100.00
42289;BME280;30230;47.520;19.016;2022-10-15T01:17:09;99257.78;;;11.07;100.00
42289;BME280;30230;47.520;19.016;2022-10-15T01:31:56;99256.31;;;10.98;100.00
42289;BME280;30230;47.520;19.016;2022-10-15T01:34:30;99253.16;;;10.94;100.00
42289;BME280;30230;47.520;19.016;2022-10-15T01:36:41;99260.88;;;10.91;100.00
42289;BME280;30230;47.520;19.016;2022-10-15T01:39:04;99255.44;;;10.84;100.00
42289;BME280;30230;47.520;19.016;2022-10-15T01:41:19;99239.22;;;10.84;100.00
42289;BME280;30230;47.520;19.016;2022-10-15T01:43:38;99246.28;;;10.79;100.00
42289;BME280;30230;47.520;19.016;2022-10-15T01:45:47;99244.84;;;10.76;100.00
42289;BME280;30230;47.520;19.016;2022-10-15T01:47:53;99240.06;;;10.72;100.00
42289;BME280;30230;47.520;19.016;2022-10-15T01:49:56;99243.38;;;10.74;100.00
42289;BME280;30230;47.520;19.016;2022-10-15T01:52:05;99239.84;;;10.66;100.00
42289;BME280;30230;47.520;19.016;2022-10-15T01:54:11;99240.06;;;10.65;100.00
42289;BME280;30230;47.520;19.016;2022-10-15T01:56:18;99243.97;;;10.62;100.00
42289;BME280;30230;47.520;19.016;2022-10-15T01:58:20;99241.06;;;10.64;100.00
42289;BME280;30230;47.520;19.016;2022-10-15T02:00:22;99242.94;;;10.57;100.00
42289;BME280;30230;47.520;19.016;2022-10-15T02:02:23;99244.19;;;10.61;100.00
42289;BME280;30230;47.520;19.016;2022-10-15T02:04:25;99234.81;;;10.57;100.00
42289;BME280;30230;47.520;19.016;2022-10-15T02:11:16;99244.16;;;10.54;100.00
42289;BME280;30230;47.520;19.016;2022-10-15T02:13:24;99252.91;;;10.56;100.00
42289;BME280;30230;47.520;19.016;2022-10-15T02:18:09;99240.84;;;10.52;100.00
42289;BME280;30230;47.520;19.016;2022-10-15T02:20:19;99247.69;;;10.48;100.00
42289;BME280;30230;47.520;19.016;2022-10-15T02:22:25;99264.09;;;10.47;100.00
42289;BME280;30230;47.520;19.016;2022-10-15T02:24:32;99248.31;;;10.50;100.00
42289;BME280;30230;47.520;19.016;2022-10-15T02:26:35;99243.75;;;10.44;100.00
42289;BME280;30230;47.520;19.016;2022-10-15T02:28:39;99238.97;;;10.46;100.00
42289;BME280;30230;47.520;19.016;2022-10-15T02:30:43;99243.75;;;10.51;100.00
42289;BME280;30230;47.520;19.016;2022-10-15T02:32:48;99241.06;;;10.51;100.00
42289;BME280;30230;47.520;19.016;2022-10-15T02:34:51;99241.88;;;10.51;100.00
42289;BME280;30230;47.520;19.016;2022-10-15T02:36:53;99228.75;;;10.41;100.00
42289;BME280;30230;47.520;19.016;2022-10-15T02:38:57;99250.38;;;10.41;100.00
42289;BME280;30230;47.520;19.016;2022-10-15T02:40:59;99242.44;;;10.33;100.00
42289;BME280;30230;47.520;19.016;2022-10-15T02:43:04;99232.50;;;10.34;100.00
42289;BME280;30230;47.520;19.016;2022-10-15T02:45:05;99241.44;;;10.34;100.00
42289;BME280;30230;47.520;19.016;2022-10-15T02:47:06;99235.81;;;10.29;100.00
42289;BME280;30230;47.520;19.016;2022-10-15T02:49:06;99239.25;;;10.23;100.00
42289;BME280;30230;47.520;19.016;2022-10-15T02:51:06;99241.34;;;10.21;100.00
42289;BME280;30230;47.520;19.016;2022-10-15T02:53:07;99240.88;;;10.17;100.00
42289;BME280;30230;47.520;19.016;2022-10-15T02:55:08;99230.94;;;10.18;100.00
42289;BME280;30230;47.520;19.016;2022-10-15T02:57:08;99232.19;;;10.15;100.00
42289;BME280;30230;47.520;19.016;2022-10-15T02:59:09;99231.13;;;10.16;100.00
42289;BME280;30230;47.520;19.016;2022-10-15T03:01:09;99227.00;;;10.14;100.00
42289;BME280;30230;47.520;19.016;2022-10-15T03:03:10;99227.00;;;10.14;100.00
42289;BME280;30230;47.520;19.016;2022-10-15T03:05:10;99227.16;;;10.12;100.00
42289;BME280;30230;47.520;19.016;2022-10-15T03:07:10;99223.69;;;10.18;100.00
42289;BME280;30230;47.520;19.016;2022-10-15T03:09:11;99223.69;;;10.18;100.00
42289;BME280;30230;47.520;19.016;2022-10-15T03:11:11;99222.00;;;10.17;100.00
42289;BME280;30230;47.520;19.016;2022-10-15T03:13:12;99223.69;;;10.18;100.00
42289;BME280;30230;47.520;19.016;2022-10-15T03:15:12;99214.94;;;10.16;100.00
42289;BME280;30230;47.520;19.016;2022-10-15T03:17:13;99224.91;;;10.16;100.00
42289;BME280;30230;47.520;19.016;2022-10-15T03:19:13;99219.50;;;10.16;100.00
42289;BME280;30230;47.520;19.016;2022-10-15T03:21:14;99219.06;;;10.12;100.00
42289;BME280;30230;47.520;19.016;2022-10-15T03:23:14;99219.06;;;10.06;100.00
42289;BME280;30230;47.520;19.016;2022-10-15T03:25:15;99214.06;;;10.03;100.00
42289;BME280;30230;47.520;19.016;2022-10-15T03:27:15;99220.69;;;10.00;100.00
42289;BME280;30230;47.520;19.016;2022-10-15T03:29:15;99218.81;;;10.01;100.00
42289;BME280;30230;47.520;19.016;2022-10-15T03:31:16;99223.78;;;9.97;100.00
42289;BME280;30230;47.520;19.016;2022-10-15T03:33:16;99219.84;;;9.93;100.00
42289;BME280;30230;47.520;19.016;2022-10-15T03:35:17;99236.41;;;9.90;100.00
42289;BME280;30230;47.520;19.016;2022-10-15T03:37:17;99239.50;;;9.87;100.00
42289;BME280;30230;47.520;19.016;2022-10-15T03:39:17;99238.28;;;9.89;100.00
42289;BME280;30230;47.520;19.016;2022-10-15T03:41:18;99238.88;;;9.85;100.00
42289;BME280;30230;47.520;19.016;2022-10-15T03:43:18;99209.56;;;9.75;100.00
42289;BME280;30230;47.520;19.016;2022-10-15T03:45:19;99237.22;;;9.84;100.00
42289;BME280;30230;47.520;19.016;2022-10-15T03:47:19;99224.72;;;9.76;100.00
42289;BME280;30230;47.520;19.016;2022-10-15T03:49:20;99230.94;;;9.77;100.00
42289;BME280;30230;47.520;19.016;2022-10-15T03:51:20;99232.19;;;9.74;100.00
42289;BME280;30230;47.520;19.016;2022-10-15T03:53:21;99233.03;;;9.75;100.00
42289;BME280;30230;47.520;19.016;2022-10-15T03:55:21;99227.63;;;9.75;100.00
42289;BME280;30230;47.520;19.016;2022-10-15T03:57:22;99231.75;;;9.71;100.00
42289;BME280;30230;47.520;19.016;2022-10-15T03:59:22;99234.66;;;9.69;100.00
42289;BME280;30230;47.520;19.016;2022-10-15T04:01:22;99226.75;;;9.68;100.00
42289;BME280;30230;47.520;19.016;2022-10-15T04:03:23;99223.25;;;9.67;100.00
42289;BME280;30230;47.520;19.016;2022-10-15T04:05:23;99224.06;;;9.68;100.00
42289;BME280;30230;47.520;19.016;2022-10-15T04:07:24;99222.78;;;9.63;100.00
42289;BME280;30230;47.520;19.016;2022-10-15T04:09:24;99220.47;;;9.60;100.00
42289;BME280;30230;47.520;19.016;2022-10-15T04:11:25;99213.22;;;9.61;100.00
42289;BME280;30230;47.520;19.016;2022-10-15T04:13:26;99220.09;;;9.63;100.00
42289;BME280;30230;47.520;19.016;2022-10-15T04:15:27;99215.53;;;9.64;100.00
42289;BME280;30230;47.520;19.016;2022-10-15T04:17:28;99220.31;;;9.62;100.00
42289;BME280;30230;47.520;19.016;2022-10-15T04:19:28;99220.31;;;9.62;100.00
42289;BME280;30230;47.520;19.016;2022-10-15T04:21:29;99213.44;;;9.59;100.00
42289;BME280;30230;47.520;19.016;2022-10-15T04:23:30;99214.84;;;9.55;100.00
42289;BME280;30230;47.520;19.016;2022-10-15T04:25:30;99215.69;;;9.56;100.00
42289;BME280;30230;47.520;19.016;2022-10-15T04:27:30;99207.78;;;9.54;100.00
42289;BME280;30230;47.520;19.016;2022-10-15T04:29:31;99209.69;;;9.60;100.00
42289;BME280;30230;47.520;19.016;2022-10-15T04:31:31;99222.94;;;9.55;100.00
42289;BME280;30230;47.520;19.016;2022-10-15T04:33:32;99220.00;;;9.50;100.00
42289;BME280;30230;47.520;19.016;2022-10-15T04:35:33;99220.00;;;9.50;100.00
42289;BME280;30230;47.520;19.016;2022-10-15T04:37:34;99225.41;;;9.50;100.00
42289;BME280;30230;47.520;19.016;2022-10-15T04:39:34;99233.31;;;9.52;100.00
42289;BME280;30230;47.520;19.016;2022-10-15T04:41:35;99235.59;;;9.55;100.00
42289;BME280;30230;47.520;19.016;2022-10-15T04:43:36;99236.00;;;9.52;100.00
42289;BME280;30230;47.520;19.016;2022-10-15T04:45:36;99236.84;;;9.52;100.00
42289;BME280;30230;47.520;19.016;2022-10-15T04:47:37;99233.31;;;9.52;100.00
42289;BME280;30230;47.520;19.016;2022-10-15T04:49:37;99228.16;;;9.57;100.00
42289;BME280;30230;47.520;19.016;2022-10-15T04:51:37;99231.44;;;9.52;100.00
42289;BME280;30230;47.520;19.016;2022-10-15T04:53:38;99229.78;;;9.51;100.00
42289;BME280;30230;47.520;19.016;2022-10-15T04:55:39;99224.19;;;9.53;100.00
42289;BME280;30230;47.520;19.016;2022-10-15T04:57:39;99231.44;;;9.52;100.00
42289;BME280;30230;47.520;19.016;2022-10-15T04:59:39;99223.75;;;9.49;100.00
42289;BME280;30230;47.520;19.016;2022-10-15T05:01:41;99227.91;;;9.52;100.00
42289;BME280;30230;47.520;19.016;2022-10-15T05:03:43;99224.19;;;9.53;100.00
42289;BME280;30230;47.520;19.016;2022-10-15T05:05:44;99231.84;;;9.56;100.00
42289;BME280;30230;47.520;19.016;2022-10-15T05:07:44;99225.63;;;9.55;100.00
42289;BME280;30230;47.520;19.016;2022-10-15T05:09:44;99234.63;;;9.62;100.00
42289;BME280;30230;47.520;19.016;2022-10-15T05:11:45;99231.50;;;9.65;100.00
42289;BME280;30230;47.520;19.016;2022-10-15T05:13:45;99242.28;;;9.65;100.00
42289;BME280;30230;47.520;19.016;2022-10-15T05:15:46;99237.72;;;9.66;100.00
42289;BME280;30230;47.520;19.016;2022-10-15T05:17:46;99239.84;;;9.71;100.00
42289;BME280;30230;47.520;19.016;2022-10-15T05:19:46;99244.19;;;9.72;100.00
42289;BME280;30230;47.520;19.016;2022-10-15T05:21:46;99244.41;;;9.70;100.00
42289;BME280;30230;47.520;19.016;2022-10-15T05:23:47;99244.41;;;9.70;100.00
42289;BME280;30230;47.520;19.016;2022-10-15T05:25:49;99235.47;;;9.70;100.00
42289;BME280;30230;47.520;19.016;2022-10-15T05:27:49;99240.66;;;9.71;100.00
42289;BME280;30230;47.520;19.016;2022-10-15T05:29:49;99235.50;;;9.76;100.00
42289;BME280;30230;47.520;19.016;2022-10-15T05:31:49;99241.09;;;9.75;100.00
42289;BME280;30230;47.520;19.016;2022-10-15T05:33:51;99233.84;;;9.75;100.00
42289;BME280;30230;47.520;19.016;2022-10-15T05:35:51;99231.38;;;9.80;100.00
42289;BME280;30230;47.520;19.016;2022-10-15T05:37:52;99226.00;;;9.80;100.00
42289;BME280;30230;47.520;19.016;2022-10-15T05:39:52;99228.47;;;9.82;100.00
42289;BME280;30230;47.520;19.016;2022-10-15T05:41:52;99223.75;;;9.84;100.00
42289;BME280;30230;47.520;19.016;2022-10-15T05:43:53;99224.34;;;9.86;100.00
42289;BME280;30230;47.520;19.016;2022-10-15T05:45:55;99224.59;;;9.91;100.00
42289;BME280;30230;47.520;19.016;2022-10-15T05:47:55;99229.97;;;9.91;100.00
42289;BME280;30230;47.520;19.016;2022-10-15T05:49:55;99235.19;;;9.93;100.00
42289;BME280;30230;47.520;19.016;2022-10-15T05:51:56;99228.94;;;9.92;100.00
42289;BME280;30230;47.520;19.016;2022-10-15T05:53:57;99234.34;;;9.92;100.00
42289;BME280;30230;47.520;19.016;2022-10-15T05:55:57;99234.16;;;9.94;100.00
42289;BME280;30230;47.520;19.016;2022-10-15T05:58:01;99229.81;;;9.93;100.00
42289;BME280;30230;47.520;19.016;2022-10-15T06:00:05;99240.78;;;9.91;100.00
42289;BME280;30230;47.520;19.016;2022-10-15T06:02:05;99242.66;;;9.90;100.00
42289;BME280;30230;47.520;19.016;2022-10-15T06:04:05;99244.75;;;9.95;100.00
42289;BME280;30230;47.520;19.016;2022-10-15T06:06:12;99245.56;;;9.96;100.00
42289;BME280;30230;47.520;19.016;2022-10-15T06:08:13;99243.72;;;9.96;100.00
42289;BME280;30230;47.520;19.016;2022-10-15T06:10:13;99254.50;;;9.96;100.00
42289;BME280;30230;47.520;19.016;2022-10-15T06:12:14;99261.38;;;9.99;100.00
42289;BME280;30230;47.520;19.016;2022-10-15T06:14:14;99270.75;;;10.03;100.00
42289;BME280;30230;47.520;19.016;2022-10-15T06:16:14;99265.75;;;10.06;100.00
42289;BME280;30230;47.520;19.016;2022-10-15T06:18:16;99266.41;;;10.08;100.00
42289;BME280;30230;47.520;19.016;2022-10-15T06:20:16;99272.66;;;10.15;100.00
42289;BME280;30230;47.520;19.016;2022-10-15T06:22:16;99275.59;;;10.21;100.00
42289;BME280;30230;47.520;19.016;2022-10-15T06:24:16;99271.63;;;10.23;100.00
42289;BME280;30230;47.520;19.016;2022-10-15T06:26:17;99271.72;;;10.30;100.00
42289;BME280;30230;47.520;19.016;2022-10-15T06:28:17;99276.69;;;10.33;100.00
42289;BME280;30230;47.520;19.016;2022-10-15T06:30:18;99276.94;;;10.38;100.00
42289;BME280;30230;47.520;19.016;2022-10-15T06:32:18;99269.47;;;10.40;100.00
42289;BME280;30230;47.520;19.016;2022-10-15T06:34:18;99275.72;;;10.47;100.00
42289;BME280;30230;47.520;19.016;2022-10-15T06:36:19;99272.41;;;10.52;100.00
42289;BME280;30230;47.520;19.016;2022-10-15T06:38:20;99272.47;;;10.85;100.00
42289;BME280;30230;47.520;19.016;2022-10-15T06:40:20;99278.34;;;11.02;100.00
42289;BME280;30230;47.520;19.016;2022-10-15T06:42:21;99275.66;;;11.08;100.00
42289;BME280;30230;47.520;19.016;2022-10-15T06:44:21;99276.25;;;11.10;100.00
42289;BME280;30230;47.520;19.016;2022-10-15T06:46:22;99280.03;;;11.23;100.00
42289;BME280;30230;47.520;19.016;2022-10-15T06:48:22;99277.09;;;11.51;100.00
42289;BME280;30230;47.520;19.016;2022-10-15T06:50:22;99282.28;;;11.65;100.00
42289;BME280;30230;47.520;19.016;2022-10-15T06:52:22;99290.00;;;11.62;100.00
42289;BME280;30230;47.520;19.016;2022-10-15T06:54:24;99287.09;;;11.50;100.00
42289;BME280;30230;47.520;19.016;2022-10-15T06:56:24;99285.84;;;11.46;100.00
42289;BME280;30230;47.520;19.016;2022-10-15T06:58:24;99279.63;;;11.39;100.00
42289;BME280;30230;47.520;19.016;2022-10-15T07:00:25;99291.25;;;11.39;100.00
42289;BME280;30230;47.520;19.016;2022-10-15T07:02:25;99288.78;;;11.38;100.00
42289;BME280;30230;47.520;19.016;2022-10-15T07:04:26;99291.69;;;11.43;100.00
42289;BME280;30230;47.520;19.016;2022-10-15T07:06:26;99299.78;;;11.43;100.00
42289;BME280;30230;47.520;19.016;2022-10-15T07:08:26;99297.50;;;11.40;100.00
42289;BME280;30230;47.520;19.016;2022-10-15T07:10:27;99303.31;;;11.37;100.00
42289;BME280;30230;47.520;19.016;2022-10-15T07:12:27;99309.56;;;11.37;100.00
42289;BME280;30230;47.520;19.016;2022-10-15T07:14:28;99313.28;;;11.36;100.00
42289;BME280;30230;47.520;19.016;2022-10-15T07:16:28;99310.41;;;11.38;99.99
42289;BME280;30230;47.520;19.016;2022-10-15T07:18:28;99305.00;;;11.38;100.00
42289;BME280;30230;47.520;19.016;2022-10-15T07:20:29;99303.09;;;11.52;98.63
42289;BME280;30230;47.520;19.016;2022-10-15T07:22:30;99298.53;;;11.52;98.55
42289;BME280;30230;47.520;19.016;2022-10-15T07:24:30;99302.09;;;11.53;98.46
42289;BME280;30230;47.520;19.016;2022-10-15T07:26:30;99297.50;;;11.53;98.94
42289;BME280;30230;47.520;19.016;2022-10-15T07:28:31;99299.97;;;11.61;98.29
42289;BME280;30230;47.520;19.016;2022-10-15T07:30:31;99295.81;;;11.65;97.13
42289;BME280;30230;47.520;19.016;2022-10-15T07:32:31;99299.78;;;11.69;96.82
42289;BME280;30230;47.520;19.016;2022-10-15T07:34:32;99296.84;;;11.71;96.64
42289;BME280;30230;47.520;19.016;2022-10-15T07:36:32;99291.66;;;11.89;99.81
42289;BME280;30230;47.520;19.016;2022-10-15T07:38:32;99294.56;;;11.94;99.24
42289;BME280;30230;47.520;19.016;2022-10-15T07:40:33;99296.63;;;11.92;96.28
42289;BME280;30230;47.520;19.016;2022-10-15T07:42:33;99298.72;;;11.97;95.94
42289;BME280;30230;47.520;19.016;2022-10-15T07:44:34;99294.13;;;11.97;95.44
42289;BME280;30230;47.520;19.016;2022-10-15T07:46:34;99298.28;;;12.00;95.08
42289;BME280;30230;47.520;19.016;2022-10-15T07:48:34;99302.44;;;12.03;94.89
42289;BME280;30230;47.520;19.016;2022-10-15T07:50:34;99302.63;;;12.08;94.39
42289;BME280;30230;47.520;19.016;2022-10-15T07:52:35;99302.84;;;12.06;94.37
42289;BME280;30230;47.520;19.016;2022-10-15T07:54:35;99298.66;;;12.17;93.43
42289;BME280;30230;47.520;19.016;2022-10-15T07:56:36;99304.03;;;12.23;92.68
42289;BME280;30230;47.520;19.016;2022-10-15T07:58:36;99300.66;;;12.35;90.64
42289;BME280;30230;47.520;19.016;2022-10-15T08:00:37;99310.06;;;12.32;91.26
42289;BME280;30230;47.520;19.016;2022-10-15T08:02:37;99313.75;;;12.44;90.95
42289;BME280;30230;47.520;19.016;2022-10-15T08:04:38;99315.22;;;12.40;90.86
42289;BME280;30230;47.520;19.016;2022-10-15T08:06:38;99312.75;;;12.39;91.81
42289;BME280;30230;47.520;19.016;2022-10-15T08:08:38;99313.13;;;12.49;91.75
42289;BME280;30230;47.520;19.016;2022-10-15T08:10:38;99312.91;;;12.50;90.70
42289;BME280;30230;47.520;19.016;2022-10-15T08:12:39;99315.59;;;12.57;89.82
42289;BME280;30230;47.520;19.016;2022-10-15T08:14:39;99318.88;;;12.66;88.50
42289;BME280;30230;47.520;19.016;2022-10-15T08:16:39;99318.22;;;12.70;88.87
42289;BME280;30230;47.520;19.016;2022-10-15T08:18:40;99334.25;;;12.78;87.15
42289;BME280;30230;47.520;19.016;2022-10-15T08:20:40;99329.47;;;12.74;87.19
42289;BME280;30230;47.520;19.016;2022-10-15T08:22:41;99327.41;;;12.69;88.39
42289;BME280;30230;47.520;19.016;2022-10-15T08:24:41;99327.34;;;12.83;89.11
42289;BME280;30230;47.520;19.016;2022-10-15T08:26:41;99321.28;;;12.87;86.96
42289;BME280;30230;47.520;19.016;2022-10-15T08:28:42;99317.94;;;12.85;87.95
42289;BME280;30230;47.520;19.016;2022-10-15T08:30:42;99325.47;;;12.83;86.79
42289;BME280;30230;47.520;19.016;2022-10-15T08:32:43;99320.84;;;12.90;86.40
42289;BME280;30230;47.520;19.016;2022-10-15T08:34:43;99317.66;;;13.00;87.38
42289;BME280;30230;47.520;19.016;2022-10-15T08:36:43;99328.94;;;12.97;86.36
42289;BME280;30230;47.520;19.016;2022-10-15T08:38:44;99322.91;;;12.95;87.12
42289;BME280;30230;47.520;19.016;2022-10-15T08:40:47;99331.44;;;12.98;87.18
42289;BME280;30230;47.520;19.016;2022-10-15T08:42:48;99325.03;;;13.24;84.82
42289;BME280;30230;47.520;19.016;2022-10-15T08:44:52;99332.25;;;13.37;84.01
42289;BME280;30230;47.520;19.016;2022-10-15T08:47:40;99330.34;;;13.38;82.84
42289;BME280;30230;47.520;19.016;2022-10-15T08:51:56;99328.13;;;13.60;82.34
42289;BME280;30230;47.520;19.016;2022-10-15T08:53:58;99326.59;;;13.64;82.42
42289;BME280;30230;47.520;19.016;2022-10-15T08:56:00;99330.53;;;13.68;81.25
42289;BME280;30230;47.520;19.016;2022-10-15T08:58:09;99322.50;;;13.79;83.36
42289;BME280;30230;47.520;19.016;2022-10-15T09:00:16;99321.22;;;13.82;82.80
42289;BME280;30230;47.520;19.016;2022-10-15T09:02:22;99329.63;;;13.99;81.42
42289;BME280;30230;47.520;19.016;2022-10-15T09:06:32;99313.94;;;14.01;79.99
42289;BME280;30230;47.520;19.016;2022-10-15T09:10:47;99320.97;;;14.08;81.06
42289;BME280;30230;47.520;19.016;2022-10-15T09:12:52;99331.16;;;14.13;80.37
42289;BME280;30230;47.520;19.016;2022-10-15T09:14:55;99331.78;;;14.33;78.54
42289;BME280;30230;47.520;19.016;2022-10-15T09:16:58;99337.03;;;14.47;78.23
42289;BME280;30230;47.520;19.016;2022-10-15T09:19:01;99333.59;;;14.58;76.55
42289;BME280;30230;47.520;19.016;2022-10-15T09:21:03;99337.34;;;14.75;73.92
42289;BME280;30230;47.520;19.016;2022-10-15T09:23:08;99331.31;;;14.73;74.66
42289;BME280;30230;47.520;19.016;2022-10-15T09:25:15;99341.31;;;14.91;72.84
42289;BME280;30230;47.520;19.016;2022-10-15T09:27:34;99332.66;;;14.82;74.24
42289;BME280;30230;47.520;19.016;2022-10-15T09:31:50;99336.41;;;15.00;73.60
42289;BME280;30230;47.520;19.016;2022-10-15T09:34:36;99342.88;;;15.29;70.95
42289;BME280;30230;47.520;19.016;2022-10-15T09:36:24;99324.91;;;15.40;72.35
42289;BME280;30230;47.520;19.016;2022-10-15T09:42:35;99328.38;;;15.47;73.06
42289;BME280;30230;47.520;19.016;2022-10-15T09:44:38;99342.38;;;15.62;69.64
42289;BME280;30230;47.520;19.016;2022-10-15T09:46:42;99338.00;;;15.61;71.38
42289;BME280;30230;47.520;19.016;2022-10-15T09:48:45;99340.09;;;15.59;72.18
42289;BME280;30230;47.520;19.016;2022-10-15T09:50:54;99349.50;;;15.63;70.24
42289;BME280;30230;47.520;19.016;2022-10-15T09:55:11;99342.78;;;15.77;69.92
42289;BME280;30230;47.520;19.016;2022-10-15T09:57:18;99342.28;;;15.80;70.40
42289;BME280;30230;47.520;19.016;2022-10-15T09:59:20;99336.38;;;15.95;68.73
42289;BME280;30230;47.520;19.016;2022-10-15T10:01:23;99330.59;;;16.03;68.32
42289;BME280;30230;47.520;19.016;2022-10-15T10:03:25;99337.91;;;16.14;68.76
42289;BME280;30230;47.520;19.016;2022-10-15T10:05:27;99329.97;;;16.25;68.53
42289;BME280;30230;47.520;19.016;2022-10-15T10:07:32;99327.09;;;16.31;67.87
42289;BME280;30230;47.520;19.016;2022-10-15T10:09:48;99321.19;;;16.34;68.29
42289;BME280;30230;47.520;19.016;2022-10-15T10:11:52;99312.28;;;16.39;67.19
42289;BME280;30230;47.520;19.016;2022-10-15T10:13:56;99320.59;;;16.44;67.24
42289;BME280;30230;47.520;19.016;2022-10-15T10:16:04;99324.44;;;16.60;66.56
42289;BME280;30230;47.520;19.016;2022-10-15T10:18:09;99321.81;;;16.65;69.72
42289;BME280;30230;47.520;19.016;2022-10-15T10:20:18;99325.13;;;16.67;66.27
42289;BME280;30230;47.520;19.016;2022-10-15T10:22:19;99327.19;;;16.60;68.07
42289;BME280;30230;47.520;19.016;2022-10-15T10:24:29;99327.06;;;16.55;72.29
42289;BME280;30230;47.520;19.016;2022-10-15T10:26:33;99334.63;;;16.64;72.89
42289;BME280;30230;47.520;19.016;2022-10-15T10:30:35;99322.09;;;17.21;68.04
42289;BME280;30230;47.520;19.016;2022-10-15T10:32:36;99322.03;;;17.32;66.53
42289;BME280;30230;47.520;19.016;2022-10-15T10:34:37;99328.16;;;17.23;64.92
42289;BME280;30230;47.520;19.016;2022-10-15T10:36:37;99316.88;;;17.19;64.68
42289;BME280;30230;47.520;19.016;2022-10-15T10:38:38;99315.53;;;17.05;63.91
42289;BME280;30230;47.520;19.016;2022-10-15T10:40:40;99301.78;;;17.00;63.80
42289;BME280;30230;47.520;19.016;2022-10-15T10:42:40;99305.00;;;16.97;65.52
42289;BME280;30230;47.520;19.016;2022-10-15T10:44:41;99296.97;;;16.90;68.28
42289;BME280;30230;47.520;19.016;2022-10-15T10:46:59;99293.50;;;16.95;67.92
42289;BME280;30230;47.520;19.016;2022-10-15T10:49:00;99293.41;;;16.89;66.76
42289;BME280;30230;47.520;19.016;2022-10-15T10:51:02;99295.00;;;16.85;64.68
42289;BME280;30230;47.520;19.016;2022-10-15T10:53:12;99291.59;;;16.95;67.00
42289;BME280;30230;47.520;19.016;2022-10-15T10:55:17;99298.81;;;17.01;64.16
42289;BME280;30230;47.520;19.016;2022-10-15T10:57:18;99294.47;;;16.88;65.81
42289;BME280;30230;47.520;19.016;2022-10-15T10:59:25;99291.75;;;16.88;65.79
42289;BME280;30230;47.520;19.016;2022-10-15T11:01:27;99285.47;;;16.88;65.36
42289;BME280;30230;47.520;19.016;2022-10-15T11:03:32;99282.00;;;16.92;63.49
42289;BME280;30230;47.520;19.016;2022-10-15T11:05:33;99285.22;;;16.89;63.85
42289;BME280;30230;47.520;19.016;2022-10-15T11:07:41;99288.03;;;16.95;62.21
42289;BME280;30230;47.520;19.016;2022-10-15T11:15:56;99285.66;;;16.98;63.54
42289;BME280;30230;47.520;19.016;2022-10-15T11:20:10;99282.00;;;16.92;63.83
42289;BME280;30230;47.520;19.016;2022-10-15T11:24:40;99274.41;;;16.95;63.02
42289;BME280;30230;47.520;19.016;2022-10-15T11:27:07;99261.59;;;16.95;61.11
42289;BME280;30230;47.520;19.016;2022-10-15T11:35:42;99247.28;;;16.88;60.74
42289;BME280;30230;47.520;19.016;2022-10-15T11:42:24;99245.38;;;16.88;58.93
42289;BME280;30230;47.520;19.016;2022-10-15T11:56:15;99232.34;;;16.90;60.69
42289;BME280;30230;47.520;19.016;2022-10-15T12:00:30;99243.63;;;16.82;62.34
42289;BME280;30230;47.520;19.016;2022-10-15T12:02:35;99237.53;;;16.92;59.95
42289;BME280;30230;47.520;19.016;2022-10-15T12:04:43;99235.06;;;16.90;61.69